Time;durP1;ratioP1;P1;durP2;ratioP2;P2;SDS_P1;SDS_P2;PMS_P1;PMS_P2;Temp;Humidity;BMP_temperature;BMP_pressure;BME280_temperature;BME280_humidity;BME280_pressure;Samples;Min_cycle;Max_cycle;Signal;HPM_P1;HPM_P2
2023/11/13 00:00:13;;;;;;;55.47;2.47;;;;;;;;;;5051471;28;20447;-69
2023/11/13 00:02:41;;;;;;;55.90;3.00;;;;;;;;;;5051332;28;20450;-70
2023/11/13 00:05:09;;;;;;;55.87;2.60;;;;;;;;;;5051374;28;20442;-71
2023/11/13 00:07:36;;;;;;;55.90;2.73;;;;;;;;;;5051377;28;20950;-71
2023/11/13 00:10:04;;;;;;;55.67;2.47;;;;;;;;;;5051271;28;20484;-71
2023/11/13 00:12:31;;;;;;;56.47;2.93;;;;;;;;;;5051377;28;20476;-71
2023/11/13 00:14:58;;;;;;;55.90;2.70;;;;;;;;;;5051139;28;21002;-69
2023/11/13 00:17:26;;;;;;;55.47;2.47;;;;;;;;;;5050918;28;20549;-71
2023/11/13 00:19:53;;;;;;;55.80;2.60;;;;;;;;;;5050999;28;20453;-71
2023/11/13 00:22:21;;;;;;;55.97;3.00;;;;;;;;;;5050872;28;20491;-71
2023/11/13 00:24:48;;;;;;;55.67;2.40;;;;;;;;;;5051170;28;20453;-71
2023/11/13 00:27:16;;;;;;;55.80;2.90;;;;;;;;;;5050878;28;20473;-71
2023/11/13 00:29:43;;;;;;;55.80;2.80;;;;;;;;;;5051058;28;20549;-72
2023/11/13 00:32:10;;;;;;;55.67;2.60;;;;;;;;;;5050636;28;20473;-69
2023/11/13 00:34:37;;;;;;;55.67;2.30;;;;;;;;;;5051153;28;20450;-71
2023/11/13 00:37:05;;;;;;;56.00;2.83;;;;;;;;;;5051098;28;20446;-71
2023/11/13 00:39:34;;;;;;;57.60;2.70;;;;;;;;;;5051182;28;20452;-71
2023/11/13 00:42:01;;;;;;;55.80;2.50;;;;;;;;;;5050669;28;20493;-71
2023/11/13 00:44:29;;;;;;;56.20;3.80;;;;;;;;;;5050860;28;20499;-72
2023/11/13 00:46:56;;;;;;;56.00;2.67;;;;;;;;;;5050867;28;20459;-71
2023/11/13 00:49:23;;;;;;;56.87;3.93;;;;;;;;;;5051160;28;20453;-69
2023/11/13 00:51:50;;;;;;;55.87;3.00;;;;;;;;;;5050519;28;21266;-70
2023/11/13 00:54:17;;;;;;;56.00;2.83;;;;;;;;;;5050829;28;20473;-70
2023/11/13 00:56:45;;;;;;;55.77;2.73;;;;;;;;;;5050488;28;20446;-70
2023/11/13 00:59:12;;;;;;;55.80;2.80;;;;;;;;;;5050544;28;20450;-70
2023/11/13 01:01:39;;;;;;;58.30;2.93;;;;;;;;;;5050821;28;20486;-70
2023/11/13 01:04:07;;;;;;;58.47;3.87;;;;;;;;;;5050398;28;20967;-70
2023/11/13 01:06:34;;;;;;;55.80;2.60;;;;;;;;;;5052841;28;20820;-70
2023/11/13 01:09:01;;;;;;;56.40;3.53;;;;;;;;;;5054766;28;20454;-70
2023/11/13 01:11:28;;;;;;;56.00;2.70;;;;;;;;;;5054643;28;20494;-70
2023/11/13 01:13:57;;;;;;;55.97;3.03;;;;;;;;;;5054556;28;20953;-70
2023/11/13 01:16:24;;;;;;;56.10;2.70;;;;;;;;;;5054494;28;21009;-70
2023/11/13 01:18:53;;;;;;;56.97;4.23;;;;;;;;;;5054445;28;20523;-70
2023/11/13 01:21:20;;;;;;;55.93;2.30;;;;;;;;;;5054333;28;20911;-70
2023/11/13 01:23:47;;;;;;;55.73;2.93;;;;;;;;;;5054456;28;20478;-70
2023/11/13 01:26:14;;;;;;;55.90;2.63;;;;;;;;;;5054096;28;20980;-70
2023/11/13 01:28:41;;;;;;;55.90;2.60;;;;;;;;;;5054386;28;20458;-70
2023/11/13 01:31:10;;;;;;;55.77;2.60;;;;;;;;;;5054361;28;20471;-70
2023/11/13 01:33:37;;;;;;;56.00;2.93;;;;;;;;;;5054117;28;20796;-70
2023/11/13 01:36:05;;;;;;;55.77;2.57;;;;;;;;;;5054190;28;20450;-71
2023/11/13 01:38:33;;;;;;;57.20;3.40;;;;;;;;;;5053617;28;20454;-70
2023/11/13 01:41:00;;;;;;;56.10;3.10;;;;;;;;;;5053761;28;20503;-71
2023/11/13 01:43:28;;;;;;;55.90;2.70;;;;;;;;;;5054193;28;21010;-71
2023/11/13 01:45:56;;;;;;;59.20;4.20;;;;;;;;;;5054071;28;20457;-71
2023/11/13 01:48:25;;;;;;;55.77;2.93;;;;;;;;;;5054049;28;20450;-71
2023/11/13 01:50:52;;;;;;;56.10;2.70;;;;;;;;;;5053799;28;20484;-71
2023/11/13 01:53:21;;;;;;;55.57;2.67;;;;;;;;;;5053633;28;20455;-71
2023/11/13 01:55:48;;;;;;;56.43;2.90;;;;;;;;;;5054129;28;20500;-71
2023/11/13 01:58:15;;;;;;;55.97;2.73;;;;;;;;;;5053806;28;20442;-71
2023/11/13 02:00:43;;;;;;;55.87;2.60;;;;;;;;;;5053806;28;20470;-72
2023/11/13 02:03:11;;;;;;;55.77;2.87;;;;;;;;;;5053683;28;20520;-71
2023/11/13 02:05:40;;;;;;;56.60;2.90;;;;;;;;;;5053743;28;20451;-71
2023/11/13 02:08:07;;;;;;;55.67;2.60;;;;;;;;;;5053399;28;20467;-71
2023/11/13 02:10:35;;;;;;;56.30;3.33;;;;;;;;;;5053448;28;20491;-71
2023/11/13 02:13:04;;;;;;;56.07;2.80;;;;;;;;;;5053296;28;20520;-71
2023/11/13 02:15:31;;;;;;;56.80;3.13;;;;;;;;;;5053428;28;20450;-71
2023/11/13 02:17:59;;;;;;;56.10;2.70;;;;;;;;;;5052001;28;20448;-71
2023/11/13 02:20:27;;;;;;;56.10;2.60;;;;;;;;;;5053427;28;20505;-71
2023/11/13 02:22:55;;;;;;;55.80;2.47;;;;;;;;;;5053275;28;20497;-72
2023/11/13 02:25:25;;;;;;;56.20;2.77;;;;;;;;;;5053382;28;20845;-72
2023/11/13 02:27:53;;;;;;;55.83;2.60;;;;;;;;;;5052407;28;20533;-72
2023/11/13 02:30:20;;;;;;;56.00;2.73;;;;;;;;;;5053253;28;20489;-72
2023/11/13 02:32:48;;;;;;;55.57;2.50;;;;;;;;;;5053306;28;20449;-72
2023/11/13 02:35:15;;;;;;;56.30;3.47;;;;;;;;;;5053396;28;20446;-72
2023/11/13 02:37:42;;;;;;;55.77;2.40;;;;;;;;;;5053020;28;20454;-72
2023/11/13 02:40:11;;;;;;;55.67;2.60;;;;;;;;;;5053125;28;20452;-72
2023/11/13 02:42:40;;;;;;;56.20;3.10;;;;;;;;;;5052725;28;20536;-72
2023/11/13 02:45:07;;;;;;;55.90;2.73;;;;;;;;;;5053333;28;20451;-72
2023/11/13 02:47:34;;;;;;;55.60;2.63;;;;;;;;;;5052942;28;20447;-72
2023/11/13 02:50:02;;;;;;;55.90;2.50;;;;;;;;;;5052594;28;20458;-72
2023/11/13 02:52:29;;;;;;;55.13;2.13;;;;;;;;;;5052476;28;20451;-72
2023/11/13 02:54:56;;;;;;;55.83;2.50;;;;;;;;;;5052526;28;20449;-72
2023/11/13 02:57:23;;;;;;;55.80;2.47;;;;;;;;;;5052811;28;20457;-72
2023/11/13 02:59:52;;;;;;;55.47;2.27;;;;;;;;;;5052936;28;20448;-72
2023/11/13 03:02:19;;;;;;;55.87;2.50;;;;;;;;;;5052638;28;20498;-71
2023/11/13 03:04:46;;;;;;;57.03;2.47;;;;;;;;;;5052566;28;20549;-72
2023/11/13 03:07:13;;;;;;;56.10;2.33;;;;;;;;;;5052576;28;20508;-72
2023/11/13 03:09:40;;;;;;;55.90;2.50;;;;;;;;;;5052418;28;20841;-72
2023/11/13 03:12:08;;;;;;;56.10;2.10;;;;;;;;;;5052459;28;20494;-72
2023/11/13 03:14:35;;;;;;;56.00;2.57;;;;;;;;;;5052630;28;20533;-72
2023/11/13 03:17:03;;;;;;;55.87;2.50;;;;;;;;;;5052309;28;20567;-72
2023/11/13 03:19:30;;;;;;;55.97;2.70;;;;;;;;;;5052213;28;20500;-72
2023/11/13 03:21:57;;;;;;;55.77;2.37;;;;;;;;;;5051708;28;20496;-72
2023/11/13 03:24:24;;;;;;;56.00;2.30;;;;;;;;;;5052054;28;20446;-72
2023/11/13 03:26:52;;;;;;;56.50;3.10;;;;;;;;;;5052156;28;20515;-71
2023/11/13 03:29:19;;;;;;;55.13;2.20;;;;;;;;;;5051824;28;20449;-71
2023/11/13 03:31:46;;;;;;;56.00;2.60;;;;;;;;;;5051960;28;20465;-71
2023/11/13 03:34:14;;;;;;;55.90;2.60;;;;;;;;;;5051982;28;20446;-71
2023/11/13 03:36:41;;;;;;;55.67;2.40;;;;;;;;;;5051521;28;20910;-71
2023/11/13 03:39:08;;;;;;;56.00;2.77;;;;;;;;;;5051375;28;20477;-71
2023/11/13 03:41:35;;;;;;;55.63;2.63;;;;;;;;;;5051878;28;20494;-71
2023/11/13 03:44:03;;;;;;;55.73;2.60;;;;;;;;;;5048917;28;20930;-72
2023/11/13 03:46:30;;;;;;;55.60;2.53;;;;;;;;;;5051853;28;20808;-72
2023/11/13 03:48:57;;;;;;;55.57;2.50;;;;;;;;;;5051464;28;20439;-72
2023/11/13 03:51:26;;;;;;;55.17;2.40;;;;;;;;;;5051482;28;20465;-72
2023/11/13 03:53:53;;;;;;;56.00;2.90;;;;;;;;;;5051665;28;20452;-71
2023/11/13 03:56:20;;;;;;;55.63;2.30;;;;;;;;;;5051562;28;20537;-71
2023/11/13 03:58:48;;;;;;;55.63;2.50;;;;;;;;;;5051763;28;20450;-71
2023/11/13 04:01:16;;;;;;;56.10;2.43;;;;;;;;;;5051492;28;20578;-71
2023/11/13 04:03:44;;;;;;;55.90;2.50;;;;;;;;;;5051455;28;20450;-71
2023/11/13 04:06:11;;;;;;;55.57;2.50;;;;;;;;;;5051530;28;20456;-71
2023/11/13 04:08:40;;;;;;;56.17;3.03;;;;;;;;;;5051430;28;20565;-71
2023/11/13 04:11:07;;;;;;;56.00;2.90;;;;;;;;;;5051039;28;20474;-71
2023/11/13 04:13:35;;;;;;;55.87;2.60;;;;;;;;;;5051314;28;20447;-71
2023/11/13 04:16:03;;;;;;;55.87;2.17;;;;;;;;;;5051169;28;20451;-72
2023/11/13 04:18:31;;;;;;;55.90;2.20;;;;;;;;;;5051156;28;20462;-72
2023/11/13 04:20:58;;;;;;;55.97;2.60;;;;;;;;;;5051518;28;20480;-72
2023/11/13 04:23:25;;;;;;;55.90;2.50;;;;;;;;;;5051326;28;21094;-72
2023/11/13 04:25:54;;;;;;;56.10;2.50;;;;;;;;;;5051298;28;20450;-71
2023/11/13 04:28:22;;;;;;;56.10;2.50;;;;;;;;;;5051178;28;20452;-71
2023/11/13 04:30:49;;;;;;;55.57;2.33;;;;;;;;;;5051094;28;20529;-71
2023/11/13 04:33:16;;;;;;;55.67;2.20;;;;;;;;;;5051092;28;20446;-72
2023/11/13 04:35:43;;;;;;;56.00;2.37;;;;;;;;;;5051126;28;20449;-72
2023/11/13 04:38:10;;;;;;;55.67;2.60;;;;;;;;;;5051027;28;20819;-72
2023/11/13 04:40:37;;;;;;;55.33;2.23;;;;;;;;;;5050160;28;20463;-72
2023/11/13 04:43:06;;;;;;;56.10;3.10;;;;;;;;;;5050798;28;20489;-72
2023/11/13 04:45:34;;;;;;;55.33;2.37;;;;;;;;;;5051015;28;20443;-72
2023/11/13 04:48:01;;;;;;;55.87;2.50;;;;;;;;;;5051010;28;20864;-72
2023/11/13 04:50:28;;;;;;;56.00;2.50;;;;;;;;;;5050989;28;20567;-71
2023/11/13 04:52:56;;;;;;;55.70;2.70;;;;;;;;;;5051037;28;20447;-71
2023/11/13 04:55:23;;;;;;;56.10;2.90;;;;;;;;;;5050783;28;20446;-71
2023/11/13 04:57:50;;;;;;;55.83;2.40;;;;;;;;;;5050630;28;20455;-71
2023/11/13 05:00:19;;;;;;;55.73;2.20;;;;;;;;;;5050880;28;20454;-71
2023/11/13 05:02:46;;;;;;;56.20;2.83;;;;;;;;;;5050680;28;20500;-71
2023/11/13 05:05:14;;;;;;;56.17;2.77;;;;;;;;;;5050977;28;20451;-71
2023/11/13 05:07:41;;;;;;;55.83;2.30;;;;;;;;;;5050632;28;20454;-71
2023/11/13 05:10:10;;;;;;;55.67;2.50;;;;;;;;;;5050470;28;20458;-71
2023/11/13 05:12:38;;;;;;;55.90;2.50;;;;;;;;;;5050606;28;20451;-71
2023/11/13 05:15:06;;;;;;;55.87;2.37;;;;;;;;;;5050854;28;20461;-71
2023/11/13 05:17:37;;;;;;;55.77;2.60;;;;;;;;;;5050538;28;20454;-71
2023/11/13 05:20:05;;;;;;;55.97;2.70;;;;;;;;;;5050456;28;20451;-71
2023/11/13 05:22:32;;;;;;;56.00;2.40;;;;;;;;;;5050485;28;20478;-71
2023/11/13 05:24:59;;;;;;;56.00;2.33;;;;;;;;;;5050661;28;20474;-72
2023/11/13 05:27:26;;;;;;;56.00;2.30;;;;;;;;;;5050480;28;20447;-71
2023/11/13 05:29:53;;;;;;;55.90;2.30;;;;;;;;;;5050761;28;20450;-71
2023/11/13 05:32:21;;;;;;;55.77;2.33;;;;;;;;;;5050350;28;20467;-71
2023/11/13 05:34:49;;;;;;;56.10;2.33;;;;;;;;;;5050537;28;20455;-72
2023/11/13 05:37:17;;;;;;;55.47;2.30;;;;;;;;;;5050343;28;20450;-72
2023/11/13 05:39:44;;;;;;;55.80;2.53;;;;;;;;;;5049671;28;20458;-72
2023/11/13 05:42:11;;;;;;;55.37;2.33;;;;;;;;;;5050311;28;20494;-70
2023/11/13 05:44:38;;;;;;;55.67;2.20;;;;;;;;;;5050666;28;20551;-70
2023/11/13 05:47:05;;;;;;;55.23;2.30;;;;;;;;;;5050292;28;20454;-70
2023/11/13 05:49:33;;;;;;;55.67;2.30;;;;;;;;;;5050981;28;20813;-70
2023/11/13 05:52:01;;;;;;;55.30;2.13;;;;;;;;;;5051094;28;20471;-70
2023/11/13 05:54:28;;;;;;;55.80;2.40;;;;;;;;;;5054044;28;20451;-70
2023/11/13 05:56:55;;;;;;;55.60;2.10;;;;;;;;;;5054024;28;21226;-70
2023/11/13 05:59:23;;;;;;;55.27;2.10;;;;;;;;;;5053488;28;20458;-70
2023/11/13 06:01:50;;;;;;;55.60;1.93;;;;;;;;;;5053584;28;20975;-70
2023/11/13 06:04:17;;;;;;;55.80;2.20;;;;;;;;;;5053606;28;20836;-70
2023/11/13 06:06:45;;;;;;;55.60;2.40;;;;;;;;;;5053136;28;20532;-70
2023/11/13 06:09:15;;;;;;;56.00;2.93;;;;;;;;;;5053409;28;20454;-70
2023/11/13 06:11:45;;;;;;;55.70;2.20;;;;;;;;;;5053571;28;20475;-70
2023/11/13 06:14:12;;;;;;;55.67;1.93;;;;;;;;;;5053593;28;20446;-70
2023/11/13 06:16:39;;;;;;;56.00;2.10;;;;;;;;;;5053281;28;20458;-70
2023/11/13 06:19:07;;;;;;;55.87;2.40;;;;;;;;;;5053213;28;20458;-70
2023/11/13 06:21:34;;;;;;;55.57;2.20;;;;;;;;;;5053165;28;20565;-69
2023/11/13 06:24:03;;;;;;;55.00;2.10;;;;;;;;;;5053427;28;20494;-70
2023/11/13 06:26:31;;;;;;;56.10;2.20;;;;;;;;;;5053160;28;20455;-71
2023/11/13 06:28:58;;;;;;;55.90;2.50;;;;;;;;;;5053141;28;20447;-69
2023/11/13 06:31:25;;;;;;;55.27;2.50;;;;;;;;;;5053108;28;20473;-69
2023/11/13 06:33:53;;;;;;;55.73;2.13;;;;;;;;;;5053097;28;20442;-70
2023/11/13 06:36:20;;;;;;;55.67;2.40;;;;;;;;;;5053074;28;20474;-70
2023/11/13 06:38:47;;;;;;;55.47;2.20;;;;;;;;;;5053055;28;20448;-70
2023/11/13 06:41:14;;;;;;;56.20;2.30;;;;;;;;;;5052686;28;20994;-70
2023/11/13 06:43:43;;;;;;;55.37;2.40;;;;;;;;;;5052969;28;20498;-69
2023/11/13 06:46:11;;;;;;;55.87;2.37;;;;;;;;;;5053362;28;20447;-69
2023/11/13 06:48:38;;;;;;;55.80;2.23;;;;;;;;;;5052976;28;20476;-70
2023/11/13 06:51:06;;;;;;;57.93;2.23;;;;;;;;;;5053170;28;20486;-70
2023/11/13 06:53:33;;;;;;;55.77;2.33;;;;;;;;;;5052662;28;20443;-70
2023/11/13 06:56:00;;;;;;;55.37;2.20;;;;;;;;;;5052785;28;20797;-70
2023/11/13 06:58:27;;;;;;;56.00;2.13;;;;;;;;;;5053032;28;20538;-70
2023/11/13 07:00:57;;;;;;;55.73;2.30;;;;;;;;;;5052271;28;21005;-71
2023/11/13 07:03:24;;;;;;;55.33;2.20;;;;;;;;;;5051669;28;20544;-70
2023/11/13 07:05:52;;;;;;;55.70;2.07;;;;;;;;;;5052526;28;20463;-70
2023/11/13 07:08:19;;;;;;;55.40;2.27;;;;;;;;;;5052423;28;20462;-70
2023/11/13 07:10:46;;;;;;;56.00;2.17;;;;;;;;;;5052296;28;20484;-71
2023/11/13 07:13:13;;;;;;;54.90;2.07;;;;;;;;;;5052099;28;20447;-71
2023/11/13 07:15:40;;;;;;;56.37;2.57;;;;;;;;;;5052094;28;21002;-71
2023/11/13 07:18:09;;;;;;;55.33;2.40;;;;;;;;;;5052316;28;20832;-70
2023/11/13 07:20:36;;;;;;;55.90;2.47;;;;;;;;;;5052234;28;20469;-71
2023/11/13 07:23:03;;;;;;;55.37;2.27;;;;;;;;;;5051953;28;20493;-70
2023/11/13 07:25:31;;;;;;;54.80;2.00;;;;;;;;;;5051991;28;20599;-71
2023/11/13 07:27:58;;;;;;;55.47;2.37;;;;;;;;;;5051799;28;20464;-71
2023/11/13 07:30:27;;;;;;;55.47;2.40;;;;;;;;;;5051867;28;21104;-70
2023/11/13 07:32:54;;;;;;;56.03;2.47;;;;;;;;;;5052001;28;20451;-70
2023/11/13 07:35:22;;;;;;;55.70;3.33;;;;;;;;;;5051888;28;20477;-69
2023/11/13 07:37:49;;;;;;;56.20;2.37;;;;;;;;;;5051253;28;20451;-70
2023/11/13 07:40:18;;;;;;;56.30;2.77;;;;;;;;;;5048792;28;20442;-70
2023/11/13 07:42:45;;;;;;;55.80;2.43;;;;;;;;;;5051122;28;20461;-70
2023/11/13 07:45:13;;;;;;;55.90;2.03;;;;;;;;;;5049217;28;20525;-70
2023/11/13 07:47:40;;;;;;;55.17;2.20;;;;;;;;;;5050884;28;20444;-71
2023/11/13 07:50:11;;;;;;;55.47;2.20;;;;;;;;;;5051389;28;20462;-70
2023/11/13 07:52:41;;;;;;;55.00;2.50;;;;;;;;;;5043844;28;20459;-70
2023/11/13 07:55:09;;;;;;;55.30;2.57;;;;;;;;;;5051477;28;20450;-71
2023/11/13 07:57:38;;;;;;;55.20;2.10;;;;;;;;;;5051797;28;20486;-70
2023/11/13 08:00:10;;;;;;;55.47;2.30;;;;;;;;;;5047586;28;20462;-69
2023/11/13 08:02:40;;;;;;;55.73;2.03;;;;;;;;;;5051311;28;20457;-69
2023/11/13 08:05:10;;;;;;;55.83;2.50;;;;;;;;;;5050564;28;20554;-70
2023/11/13 08:07:37;;;;;;;56.30;2.70;;;;;;;;;;5051050;28;20504;-71
2023/11/13 08:10:08;;;;;;;55.27;2.20;;;;;;;;;;5051236;28;20473;-68
2023/11/13 08:12:36;;;;;;;55.27;2.20;;;;;;;;;;5051419;28;20454;-70
2023/11/13 08:15:04;;;;;;;57.37;2.70;;;;;;;;;;5051131;28;20458;-70
2023/11/13 08:17:33;;;;;;;55.70;2.50;;;;;;;;;;5051026;28;20831;-70
2023/11/13 08:20:01;;;;;;;56.10;2.30;;;;;;;;;;5050812;28;20536;-69
2023/11/13 08:22:28;;;;;;;55.40;2.33;;;;;;;;;;5050742;28;20537;-70
2023/11/13 08:24:55;;;;;;;55.87;2.27;;;;;;;;;;5050888;28;20486;-70
2023/11/13 08:27:23;;;;;;;56.63;2.57;;;;;;;;;;5050883;28;20450;-70
2023/11/13 08:29:51;;;;;;;56.03;2.50;;;;;;;;;;5050943;28;20466;-71
2023/11/13 08:32:18;;;;;;;55.87;2.23;;;;;;;;;;5051067;28;20475;-70
2023/11/13 08:34:45;;;;;;;55.87;2.40;;;;;;;;;;5050405;28;21022;-71
2023/11/13 08:37:12;;;;;;;55.87;2.17;;;;;;;;;;5050742;28;20827;-71
2023/11/13 08:39:39;;;;;;;55.27;2.40;;;;;;;;;;5051087;28;20477;-70
2023/11/13 08:42:07;;;;;;;55.20;2.10;;;;;;;;;;5050672;28;20463;-70
2023/11/13 08:44:36;;;;;;;55.43;2.17;;;;;;;;;;5050741;28;20494;-70
2023/11/13 08:47:05;;;;;;;55.70;2.30;;;;;;;;;;5050607;28;20485;-70
2023/11/13 08:49:33;;;;;;;55.90;2.03;;;;;;;;;;5051081;28;20508;-70
2023/11/13 08:52:01;;;;;;;76.50;2.70;;;;;;;;;;5050320;28;20478;-71
2023/11/13 08:54:28;;;;;;;56.00;2.50;;;;;;;;;;5050582;28;20447;-69
2023/11/13 08:56:55;;;;;;;56.10;2.37;;;;;;;;;;5050320;28;20501;-69
2023/11/13 08:59:23;;;;;;;55.97;2.30;;;;;;;;;;5050728;28;20860;-70
2023/11/13 09:01:52;;;;;;;56.00;2.53;;;;;;;;;;5050443;28;20466;-70
2023/11/13 09:04:19;;;;;;;56.10;2.50;;;;;;;;;;5050321;28;20493;-69
2023/11/13 09:06:46;;;;;;;56.10;3.50;;;;;;;;;;5050293;28;20458;-70
2023/11/13 09:09:15;;;;;;;55.90;2.50;;;;;;;;;;5050270;28;20451;-69
2023/11/13 09:11:42;;;;;;;55.93;2.83;;;;;;;;;;5050367;28;20471;-69
2023/11/13 09:14:09;;;;;;;56.30;2.60;;;;;;;;;;5050332;28;20447;-70
2023/11/13 09:16:38;;;;;;;55.77;2.30;;;;;;;;;;5050371;28;20446;-70
2023/11/13 09:19:08;;;;;;;56.20;2.60;;;;;;;;;;5050500;28;20577;-70
2023/11/13 09:21:35;;;;;;;56.07;2.67;;;;;;;;;;5050048;28;20482;-69
2023/11/13 09:24:02;;;;;;;56.00;2.23;;;;;;;;;;5050278;28;20500;-69
2023/11/13 09:26:30;;;;;;;56.07;2.70;;;;;;;;;;5050447;28;20459;-69
2023/11/13 09:28:57;;;;;;;55.63;2.27;;;;;;;;;;5053894;28;20489;-69
2023/11/13 09:31:25;;;;;;;55.50;2.47;;;;;;;;;;5053904;28;20538;-70
2023/11/13 09:33:52;;;;;;;56.03;2.30;;;;;;;;;;5053990;28;20456;-70
2023/11/13 09:36:21;;;;;;;55.90;2.70;;;;;;;;;;5053727;28;20577;-70
2023/11/13 09:38:53;;;;;;;56.10;2.37;;;;;;;;;;5053845;28;20454;-70
2023/11/13 09:41:23;;;;;;;55.90;2.13;;;;;;;;;;5054022;28;20516;-70
2023/11/13 09:43:51;;;;;;;55.90;2.20;;;;;;;;;;5053761;28;20528;-70
2023/11/13 09:46:20;;;;;;;55.60;2.30;;;;;;;;;;5053618;28;20450;-70
2023/11/13 09:48:51;;;;;;;55.77;2.37;;;;;;;;;;5053921;28;20542;-71
2023/11/13 09:51:19;;;;;;;56.87;3.63;;;;;;;;;;5053795;28;20531;-71
2023/11/13 09:53:49;;;;;;;57.07;2.83;;;;;;;;;;5053897;28;20455;-69
2023/11/13 09:56:17;;;;;;;55.97;2.40;;;;;;;;;;5054032;28;20483;-70
2023/11/13 09:58:45;;;;;;;55.80;2.57;;;;;;;;;;5053788;28;20453;-69
2023/11/13 10:01:14;;;;;;;55.53;2.47;;;;;;;;;;5054000;28;20476;-70
2023/11/13 10:03:41;;;;;;;55.80;2.30;;;;;;;;;;5053854;28;20490;-68
2023/11/13 10:06:11;;;;;;;55.90;2.20;;;;;;;;;;5053673;28;20451;-69
2023/11/13 10:08:42;;;;;;;55.90;2.20;;;;;;;;;;5053884;28;20456;-69
2023/11/13 10:11:11;;;;;;;55.90;2.20;;;;;;;;;;5053308;28;20990;-70
2023/11/13 10:13:38;;;;;;;55.07;2.50;;;;;;;;;;5053935;28;20552;-71
2023/11/13 10:16:20;;;;;;;56.07;2.20;;;;;;;;;;5053214;28;20443;-71
2023/11/13 10:18:47;;;;;;;55.37;2.20;;;;;;;;;;5053354;28;20910;-71
2023/11/13 10:21:21;;;;;;;56.10;2.30;;;;;;;;;;5053516;28;20471;-71
2023/11/13 10:23:48;;;;;;;55.67;2.20;;;;;;;;;;5053082;28;20522;-69
2023/11/13 10:26:26;;;;;;;55.87;2.93;;;;;;;;;;5052929;28;21185;-70
2023/11/13 10:28:54;;;;;;;55.90;2.23;;;;;;;;;;5052991;28;20842;-70
2023/11/13 10:31:23;;;;;;;55.83;2.20;;;;;;;;;;5052636;28;20474;-69
2023/11/13 10:33:59;;;;;;;55.80;2.17;;;;;;;;;;5052794;28;20512;-70
2023/11/13 10:36:26;;;;;;;56.00;2.20;;;;;;;;;;5052616;28;20461;-69
2023/11/13 10:38:54;;;;;;;55.27;2.30;;;;;;;;;;5051614;28;20448;-70
2023/11/13 10:41:29;;;;;;;56.10;2.30;;;;;;;;;;5052623;28;20474;-70
2023/11/13 10:43:56;;;;;;;55.27;2.30;;;;;;;;;;5052961;28;20564;-70
2023/11/13 10:46:30;;;;;;;56.40;2.83;;;;;;;;;;5052716;28;20457;-70
2023/11/13 10:48:58;;;;;;;56.00;2.23;;;;;;;;;;5052855;28;20465;-70
2023/11/13 10:51:27;;;;;;;56.00;2.20;;;;;;;;;;5053211;28;20562;-71
2023/11/13 10:53:54;;;;;;;55.27;2.43;;;;;;;;;;5053243;28;20478;-70
2023/11/13 10:56:21;;;;;;;54.90;2.17;;;;;;;;;;5054227;28;20462;-69
2023/11/13 10:58:51;;;;;;;56.00;2.10;;;;;;;;;;5056948;28;20512;-70
2023/11/13 11:01:20;;;;;;;55.53;2.20;;;;;;;;;;5056810;28;20532;-71
2023/11/13 11:03:49;;;;;;;55.27;2.20;;;;;;;;;;5056153;28;20442;-71
2023/11/13 11:06:19;;;;;;;55.37;2.23;;;;;;;;;;5058577;28;20461;-72
2023/11/13 11:08:48;;;;;;;55.27;2.20;;;;;;;;;;5058998;28;20447;-72
2023/11/13 11:11:15;;;;;;;55.47;2.10;;;;;;;;;;5056446;28;20483;-71
2023/11/13 11:13:44;;;;;;;55.90;2.40;;;;;;;;;;5057631;28;20453;-71
2023/11/13 11:16:27;;;;;;;55.60;2.10;;;;;;;;;;5057113;28;21293;-70
2023/11/13 11:18:56;;;;;;;55.27;2.50;;;;;;;;;;5059685;28;20527;-71
2023/11/13 11:21:33;;;;;;;55.37;2.00;;;;;;;;;;5058405;28;20473;-71
2023/11/13 11:24:03;;;;;;;55.50;2.47;;;;;;;;;;5054964;28;20485;-71
2023/11/13 11:26:46;;;;;;;55.67;2.20;;;;;;;;;;5052301;28;20463;-71
2023/11/13 11:29:31;;;;;;;55.97;2.20;;;;;;;;;;5052386;28;20458;-70
2023/11/13 11:32:00;;;;;;;55.83;2.10;;;;;;;;;;5052148;28;20482;-71
2023/11/13 11:34:30;;;;;;;56.00;2.20;;;;;;;;;;5051982;28;20451;-72
2023/11/13 11:37:01;;;;;;;55.80;2.40;;;;;;;;;;5051707;28;20455;-71
2023/11/13 11:39:29;;;;;;;55.57;2.20;;;;;;;;;;5051750;28;20828;-71
2023/11/13 11:41:56;;;;;;;55.47;2.10;;;;;;;;;;5051520;28;20473;-71
2023/11/13 11:44:24;;;;;;;56.00;2.10;;;;;;;;;;5051393;28;20487;-71
2023/11/13 11:46:52;;;;;;;55.90;2.17;;;;;;;;;;5051769;28;20455;-71
2023/11/13 11:49:24;;;;;;;56.37;2.60;;;;;;;;;;5051313;28;20456;-71
2023/11/13 11:51:52;;;;;;;55.87;2.03;;;;;;;;;;5051643;28;21065;-71
2023/11/13 11:54:21;;;;;;;55.47;2.00;;;;;;;;;;5051658;28;20447;-71
2023/11/13 11:56:58;;;;;;;55.80;2.20;;;;;;;;;;5051153;28;20455;-72
2023/11/13 11:59:27;;;;;;;60.15;2.90;;;;;;;;;;5050135;28;20451;-71
2023/11/13 12:01:54;;;;;;;55.63;2.40;;;;;;;;;;5051719;28;20224;-71
2023/11/13 12:04:23;;;;;;;55.50;2.27;;;;;;;;;;5051576;28;20491;-72
2023/11/13 12:06:52;;;;;;;55.80;2.37;;;;;;;;;;5051405;28;20446;-71
2023/11/13 12:09:20;;;;;;;56.00;2.20;;;;;;;;;;5051199;28;20560;-72
2023/11/13 12:11:49;;;;;;;56.33;3.03;;;;;;;;;;5051400;28;20471;-71
2023/11/13 12:14:16;;;;;;;55.80;2.23;;;;;;;;;;5051275;28;20442;-71
2023/11/13 12:16:43;;;;;;;55.57;2.27;;;;;;;;;;5050962;28;20455;-71
2023/11/13 12:19:11;;;;;;;55.17;2.30;;;;;;;;;;5051188;28;20451;-70
2023/11/13 12:21:41;;;;;;;56.20;2.63;;;;;;;;;;5050976;28;20473;-71
2023/11/13 12:24:09;;;;;;;55.80;2.30;;;;;;;;;;5051526;28;20454;-70
2023/11/13 12:26:37;;;;;;;55.30;2.20;;;;;;;;;;5051254;28;20453;-71
2023/11/13 12:29:12;;;;;;;55.37;2.40;;;;;;;;;;5051243;28;20454;-71
2023/11/13 12:31:39;;;;;;;55.90;2.23;;;;;;;;;;5051324;28;20474;-72
2023/11/13 12:34:07;;;;;;;55.63;2.13;;;;;;;;;;5051120;28;20457;-71
2023/11/13 12:36:35;;;;;;;55.47;2.17;;;;;;;;;;5051539;28;20443;-71
2023/11/13 12:39:04;;;;;;;55.47;2.20;;;;;;;;;;5051402;28;20452;-71
2023/11/13 12:41:32;;;;;;;56.30;2.87;;;;;;;;;;5050964;28;20479;-71
2023/11/13 12:44:01;;;;;;;55.27;2.20;;;;;;;;;;5050774;28;20453;-71
2023/11/13 12:46:30;;;;;;;55.77;2.13;;;;;;;;;;5050849;28;20886;-71
2023/11/13 12:48:58;;;;;;;55.90;2.30;;;;;;;;;;5050782;28;20790;-71
2023/11/13 12:51:27;;;;;;;56.13;2.37;;;;;;;;;;5050822;28;20546;-71
2023/11/13 12:53:55;;;;;;;54.80;2.20;;;;;;;;;;5050708;28;20543;-71
2023/11/13 12:56:23;;;;;;;55.17;2.10;;;;;;;;;;5051000;28;20449;-71
2023/11/13 12:58:51;;;;;;;55.27;2.10;;;;;;;;;;5050697;28;20451;-71
2023/11/13 13:01:21;;;;;;;56.10;2.03;;;;;;;;;;5050593;28;20466;-72
2023/11/13 13:03:49;;;;;;;55.70;2.03;;;;;;;;;;5054569;28;20541;-72
2023/11/13 13:06:16;;;;;;;55.43;2.03;;;;;;;;;;5054664;28;20482;-72
2023/11/13 13:08:43;;;;;;;55.67;2.10;;;;;;;;;;5054940;28;20535;-72
2023/11/13 13:11:10;;;;;;;55.87;2.10;;;;;;;;;;5054468;28;20485;-71
2023/11/13 13:13:39;;;;;;;55.27;2.20;;;;;;;;;;5054397;28;20908;-71
2023/11/13 13:16:06;;;;;;;55.93;2.30;;;;;;;;;;5054779;28;20815;-71
2023/11/13 13:18:36;;;;;;;55.53;2.30;;;;;;;;;;5054747;28;20458;-72
2023/11/13 13:21:03;;;;;;;55.77;2.23;;;;;;;;;;5054479;28;20574;-72
2023/11/13 13:23:30;;;;;;;55.83;2.23;;;;;;;;;;5054380;28;20483;-72
2023/11/13 13:26:02;;;;;;;55.77;2.83;;;;;;;;;;5054286;28;20484;-72
2023/11/13 13:28:30;;;;;;;55.77;2.17;;;;;;;;;;5054364;28;21253;-71
2023/11/13 13:30:58;;;;;;;56.40;2.60;;;;;;;;;;5054556;28;20843;-71
2023/11/13 13:33:25;;;;;;;56.00;2.20;;;;;;;;;;5054690;28;20462;-71
2023/11/13 13:35:53;;;;;;;55.87;2.17;;;;;;;;;;5054186;28;20994;-71
2023/11/13 13:38:20;;;;;;;55.87;2.40;;;;;;;;;;5054186;28;20450;-71
2023/11/13 13:40:48;;;;;;;55.63;2.30;;;;;;;;;;5054200;28;20474;-72
2023/11/13 13:43:15;;;;;;;55.80;2.10;;;;;;;;;;5054231;28;20443;-72
2023/11/13 13:45:46;;;;;;;55.90;2.10;;;;;;;;;;5053953;28;20487;-72
2023/11/13 13:48:14;;;;;;;55.57;2.23;;;;;;;;;;5054591;28;20460;-72
2023/11/13 13:50:42;;;;;;;55.47;1.90;;;;;;;;;;5053888;28;20474;-71
2023/11/13 13:53:14;;;;;;;55.63;2.00;;;;;;;;;;5054009;28;20511;-71
2023/11/13 13:55:42;;;;;;;55.67;2.07;;;;;;;;;;5053761;28;20888;-71
2023/11/13 13:58:10;;;;;;;55.47;2.03;;;;;;;;;;5053998;28;20457;-71
2023/11/13 14:00:39;;;;;;;55.70;2.10;;;;;;;;;;5053657;28;21172;-71
2023/11/13 14:03:07;;;;;;;55.83;2.10;;;;;;;;;;5054223;28;20460;-71
2023/11/13 14:05:37;;;;;;;55.27;2.00;;;;;;;;;;5053723;28;20479;-71
2023/11/13 14:08:05;;;;;;;55.67;2.00;;;;;;;;;;5053351;28;20896;-72
2023/11/13 14:10:34;;;;;;;55.60;2.00;;;;;;;;;;5053142;28;20538;-73
2023/11/13 14:13:02;;;;;;;55.90;1.90;;;;;;;;;;5053641;28;20491;-72
2023/11/13 14:15:29;;;;;;;55.73;1.93;;;;;;;;;;5053459;28;20510;-72
2023/11/13 14:17:56;;;;;;;55.33;2.00;;;;;;;;;;5053476;28;20486;-72
2023/11/13 14:20:23;;;;;;;55.37;1.90;;;;;;;;;;5053986;28;20470;-72
2023/11/13 14:22:56;;;;;;;56.37;2.17;;;;;;;;;;5053160;28;20457;-72
2023/11/13 14:25:23;;;;;;;55.60;2.30;;;;;;;;;;5053551;28;20540;-72
2023/11/13 14:27:51;;;;;;;55.27;1.80;;;;;;;;;;5053348;28;20451;-72
2023/11/13 14:30:20;;;;;;;55.47;1.90;;;;;;;;;;5053458;28;20452;-73
2023/11/13 14:32:47;;;;;;;56.83;2.50;;;;;;;;;;5053152;28;20541;-72
2023/11/13 14:35:14;;;;;;;55.67;2.00;;;;;;;;;;5053349;28;20446;-72